sensor_id;sensor_type;location;lat;lon;timestamp;temperature;humidity
21318;DHT22;10818;50.830;6.524;2022-09-09T00:02:24;16.90;99.90
21318;DHT22;10818;50.830;6.524;2022-09-09T00:07:47;17.00;99.90
21318;DHT22;10818;50.830;6.524;2022-09-09T00:17:57;17.00;99.90
21318;DHT22;10818;50.830;6.524;2022-09-09T00:23:02;16.90;99.90
21318;DHT22;10818;50.830;6.524;2022-09-09T00:28:08;16.90;99.90
21318;DHT22;10818;50.830;6.524;2022-09-09T00:33:15;16.70;99.90
21318;DHT22;10818;50.830;6.524;2022-09-09T00:38:20;16.60;99.90
21318;DHT22;10818;50.830;6.524;2022-09-09T00:43:28;16.50;99.90
21318;DHT22;10818;50.830;6.524;2022-09-09T00:48:38;16.40;99.90
21318;DHT22;10818;50.830;6.524;2022-09-09T00:59:15;16.10;99.90
21318;DHT22;10818;50.830;6.524;2022-09-09T01:04:18;16.20;99.90
21318;DHT22;10818;50.830;6.524;2022-09-09T01:09:31;16.00;99.90
21318;DHT22;10818;50.830;6.524;2022-09-09T01:24:47;15.90;99.90
21318;DHT22;10818;50.830;6.524;2022-09-09T01:29:51;15.90;99.90
21318;DHT22;10818;50.830;6.524;2022-09-09T01:34:51;15.90;99.90
21318;DHT22;10818;50.830;6.524;2022-09-09T01:39:52;15.90;99.90
21318;DHT22;10818;50.830;6.524;2022-09-09T01:44:52;16.00;99.90
21318;DHT22;10818;50.830;6.524;2022-09-09T01:49:56;16.00;99.90
21318;DHT22;10818;50.830;6.524;2022-09-09T01:54:56;16.10;99.90
21318;DHT22;10818;50.830;6.524;2022-09-09T02:00:07;16.00;99.90
21318;DHT22;10818;50.830;6.524;2022-09-09T02:10:23;16.20;99.90
21318;DHT22;10818;50.830;6.524;2022-09-09T02:15:32;16.30;99.90
21318;DHT22;10818;50.830;6.524;2022-09-09T02:20:35;16.30;99.90
21318;DHT22;10818;50.830;6.524;2022-09-09T02:25:37;16.30;99.90
21318;DHT22;10818;50.830;6.524;2022-09-09T02:30:37;16.40;99.90
21318;DHT22;10818;50.830;6.524;2022-09-09T02:35:39;16.50;99.90
21318;DHT22;10818;50.830;6.524;2022-09-09T02:40:40;16.50;99.90
21318;DHT22;10818;50.830;6.524;2022-09-09T02:45:47;16.70;99.90
21318;DHT22;10818;50.830;6.524;2022-09-09T03:00:52;16.70;99.90
21318;DHT22;10818;50.830;6.524;2022-09-09T03:05:53;16.80;99.90
21318;DHT22;10818;50.830;6.524;2022-09-09T03:10:54;16.90;99.90
21318;DHT22;10818;50.830;6.524;2022-09-09T03:15:54;16.90;99.90
21318;DHT22;10818;50.830;6.524;2022-09-09T03:20:55;16.90;99.90
21318;DHT22;10818;50.830;6.524;2022-09-09T03:25:55;16.90;99.90
21318;DHT22;10818;50.830;6.524;2022-09-09T03:31:02;17.00;99.90
21318;DHT22;10818;50.830;6.524;2022-09-09T03:36:03;17.00;99.90
21318;DHT22;10818;50.830;6.524;2022-09-09T03:41:03;16.90;99.90
21318;DHT22;10818;50.830;6.524;2022-09-09T03:46:06;17.00;99.90
21318;DHT22;10818;50.830;6.524;2022-09-09T03:51:07;17.00;99.90
21318;DHT22;10818;50.830;6.524;2022-09-09T03:56:07;17.10;99.90
21318;DHT22;10818;50.830;6.524;2022-09-09T04:01:09;17.10;99.90
21318;DHT22;10818;50.830;6.524;2022-09-09T04:06:10;17.20;99.90
21318;DHT22;10818;50.830;6.524;2022-09-09T04:11:12;17.10;99.90
21318;DHT22;10818;50.830;6.524;2022-09-09T04:16:13;17.10;99.90
21318;DHT22;10818;50.830;6.524;2022-09-09T04:21:13;17.20;99.90
21318;DHT22;10818;50.830;6.524;2022-09-09T04:26:15;17.30;99.90
21318;DHT22;10818;50.830;6.524;2022-09-09T04:31:18;17.30;99.90
21318;DHT22;10818;50.830;6.524;2022-09-09T04:36:18;17.40;99.90
21318;DHT22;10818;50.830;6.524;2022-09-09T04:41:19;17.40;99.90
21318;DHT22;10818;50.830;6.524;2022-09-09T04:46:20;17.30;99.90
21318;DHT22;10818;50.830;6.524;2022-09-09T04:51:22;17.40;99.90
21318;DHT22;10818;50.830;6.524;2022-09-09T04:56:23;17.30;99.90
21318;DHT22;10818;50.830;6.524;2022-09-09T05:01:26;17.30;99.90
21318;DHT22;10818;50.830;6.524;2022-09-09T05:06:27;17.30;99.90
21318;DHT22;10818;50.830;6.524;2022-09-09T05:11:29;17.30;99.90
21318;DHT22;10818;50.830;6.524;2022-09-09T05:16:30;17.20;99.90
21318;DHT22;10818;50.830;6.524;2022-09-09T05:21:31;17.30;99.90
21318;DHT22;10818;50.830;6.524;2022-09-09T05:26:31;17.30;99.90
21318;DHT22;10818;50.830;6.524;2022-09-09T05:31:32;17.40;99.90
21318;DHT22;10818;50.830;6.524;2022-09-09T05:36:33;17.50;99.90
21318;DHT22;10818;50.830;6.524;2022-09-09T05:41:33;17.40;99.90
21318;DHT22;10818;50.830;6.524;2022-09-09T05:46:34;17.40;99.90
21318;DHT22;10818;50.830;6.524;2022-09-09T05:51:35;17.40;99.90
21318;DHT22;10818;50.830;6.524;2022-09-09T05:56:35;17.50;99.90
21318;DHT22;10818;50.830;6.524;2022-09-09T06:01:36;17.50;99.90
21318;DHT22;10818;50.830;6.524;2022-09-09T06:06:40;17.60;99.90
21318;DHT22;10818;50.830;6.524;2022-09-09T06:11:42;17.50;99.90
21318;DHT22;10818;50.830;6.524;2022-09-09T06:16:43;18.00;99.90
21318;DHT22;10818;50.830;6.524;2022-09-09T06:21:44;18.30;99.90
21318;DHT22;10818;50.830;6.524;2022-09-09T06:26:44;18.70;99.90
21318;DHT22;10818;50.830;6.524;2022-09-09T06:31:45;19.30;99.90
21318;DHT22;10818;50.830;6.524;2022-09-09T06:36:46;19.30;99.90
21318;DHT22;10818;50.830;6.524;2022-09-09T06:41:46;19.10;99.90
21318;DHT22;10818;50.830;6.524;2022-09-09T06:46:47;18.90;99.90
21318;DHT22;10818;50.830;6.524;2022-09-09T06:51:48;18.70;99.90
21318;DHT22;10818;50.830;6.524;2022-09-09T06:56:49;18.80;99.90
21318;DHT22;10818;50.830;6.524;2022-09-09T07:01:50;18.90;99.90
21318;DHT22;10818;50.830;6.524;2022-09-09T07:06:52;19.10;99.90
21318;DHT22;10818;50.830;6.524;2022-09-09T07:11:52;19.20;99.90
21318;DHT22;10818;50.830;6.524;2022-09-09T07:16:53;19.40;99.90
21318;DHT22;10818;50.830;6.524;2022-09-09T07:21:53;20.80;99.90
21318;DHT22;10818;50.830;6.524;2022-09-09T07:26:54;25.10;99.90
21318;DHT22;10818;50.830;6.524;2022-09-09T07:31:54;28.40;99.90
21318;DHT22;10818;50.830;6.524;2022-09-09T07:36:55;31.50;94.20
21318;DHT22;10818;50.830;6.524;2022-09-09T07:41:57;33.70;87.80
21318;DHT22;10818;50.830;6.524;2022-09-09T07:46:58;34.10;81.10
21318;DHT22;10818;50.830;6.524;2022-09-09T07:51:59;35.90;71.20
21318;DHT22;10818;50.830;6.524;2022-09-09T07:56:59;31.00;77.60
21318;DHT22;10818;50.830;6.524;2022-09-09T08:02:00;28.20;86.20
21318;DHT22;10818;50.830;6.524;2022-09-09T08:07:00;26.70;90.70
21318;DHT22;10818;50.830;6.524;2022-09-09T08:12:01;30.10;82.90
21318;DHT22;10818;50.830;6.524;2022-09-09T08:17:02;28.30;84.60
21318;DHT22;10818;50.830;6.524;2022-09-09T08:22:02;25.60;90.70
21318;DHT22;10818;50.830;6.524;2022-09-09T08:27:03;24.10;92.90
21318;DHT22;10818;50.830;6.524;2022-09-09T08:32:04;24.40;93.20
21318;DHT22;10818;50.830;6.524;2022-09-09T08:37:04;24.50;93.20
21318;DHT22;10818;50.830;6.524;2022-09-09T08:42:12;24.40;93.70
21318;DHT22;10818;50.830;6.524;2022-09-09T08:53:03;24.00;95.80
21318;DHT22;10818;50.830;6.524;2022-09-09T08:57:45;23.80;95.70
21318;DHT22;10818;50.830;6.524;2022-09-09T09:03:00;22.70;96.80
21318;DHT22;10818;50.830;6.524;2022-09-09T09:08:14;21.90;99.40
21318;DHT22;10818;50.830;6.524;2022-09-09T09:13:18;21.40;99.90
21318;DHT22;10818;50.830;6.524;2022-09-09T09:18:21;21.80;99.90
21318;DHT22;10818;50.830;6.524;2022-09-09T09:23:23;21.90;99.90
21318;DHT22;10818;50.830;6.524;2022-09-09T09:28:24;22.10;99.90
21318;DHT22;10818;50.830;6.524;2022-09-09T09:33:27;22.10;99.90
21318;DHT22;10818;50.830;6.524;2022-09-09T09:38:29;22.70;99.90
21318;DHT22;10818;50.830;6.524;2022-09-09T09:43:30;23.00;99.90
21318;DHT22;10818;50.830;6.524;2022-09-09T09:48:31;23.70;99.90
21318;DHT22;10818;50.830;6.524;2022-09-09T09:53:33;23.50;99.90
21318;DHT22;10818;50.830;6.524;2022-09-09T10:03:49;23.30;99.90
21318;DHT22;10818;50.830;6.524;2022-09-09T10:08:50;23.30;99.90
21318;DHT22;10818;50.830;6.524;2022-09-09T10:19:15;23.60;99.90
21318;DHT22;10818;50.830;6.524;2022-09-09T10:39:39;23.70;99.90
21318;DHT22;10818;50.830;6.524;2022-09-09T10:50:00;23.00;99.90
21318;DHT22;10818;50.830;6.524;2022-09-09T11:00:40;22.80;99.90
21318;DHT22;10818;50.830;6.524;2022-09-09T11:05:43;23.20;99.90
21318;DHT22;10818;50.830;6.524;2022-09-09T11:10:53;22.90;99.90
21318;DHT22;10818;50.830;6.524;2022-09-09T11:16:43;22.60;99.90
21318;DHT22;10818;50.830;6.524;2022-09-09T11:21:45;22.70;99.90
21318;DHT22;10818;50.830;6.524;2022-09-09T11:26:47;22.70;99.90
21318;DHT22;10818;50.830;6.524;2022-09-09T11:37:04;22.90;99.90
21318;DHT22;10818;50.830;6.524;2022-09-09T11:42:08;22.30;99.90
21318;DHT22;10818;50.830;6.524;2022-09-09T11:47:29;22.40;99.90
21318;DHT22;10818;50.830;6.524;2022-09-09T11:52:43;23.00;99.90
21318;DHT22;10818;50.830;6.524;2022-09-09T11:57:46;23.50;99.90
21318;DHT22;10818;50.830;6.524;2022-09-09T12:02:48;23.00;99.90
21318;DHT22;10818;50.830;6.524;2022-09-09T12:07:54;22.40;99.90
21318;DHT22;10818;50.830;6.524;2022-09-09T12:13:07;22.00;99.90
21318;DHT22;10818;50.830;6.524;2022-09-09T12:18:07;21.70;99.90
21318;DHT22;10818;50.830;6.524;2022-09-09T12:28:22;23.20;99.90
21318;DHT22;10818;50.830;6.524;2022-09-09T12:33:24;23.50;99.90
21318;DHT22;10818;50.830;6.524;2022-09-09T12:38:31;23.50;99.90
21318;DHT22;10818;50.830;6.524;2022-09-09T12:43:33;23.20;99.90
21318;DHT22;10818;50.830;6.524;2022-09-09T12:48:38;23.20;99.90
21318;DHT22;10818;50.830;6.524;2022-09-09T12:53:42;23.30;99.90
21318;DHT22;10818;50.830;6.524;2022-09-09T12:58:44;23.70;99.90
21318;DHT22;10818;50.830;6.524;2022-09-09T13:03:46;23.80;99.90
21318;DHT22;10818;50.830;6.524;2022-09-09T13:08:47;23.70;99.90
21318;DHT22;10818;50.830;6.524;2022-09-09T13:13:54;23.70;99.90
21318;DHT22;10818;50.830;6.524;2022-09-09T13:18:56;23.70;99.90
21318;DHT22;10818;50.830;6.524;2022-09-09T13:23:56;23.10;99.90
21318;DHT22;10818;50.830;6.524;2022-09-09T13:29:07;23.20;99.90
21318;DHT22;10818;50.830;6.524;2022-09-09T13:34:12;23.10;99.90
21318;DHT22;10818;50.830;6.524;2022-09-09T13:39:15;23.20;99.90
21318;DHT22;10818;50.830;6.524;2022-09-09T13:44:20;23.00;99.90
21318;DHT22;10818;50.830;6.524;2022-09-09T13:49:23;22.40;99.90
21318;DHT22;10818;50.830;6.524;2022-09-09T13:54:24;22.00;99.90
21318;DHT22;10818;50.830;6.524;2022-09-09T13:59:25;21.80;99.90
21318;DHT22;10818;50.830;6.524;2022-09-09T14:04:26;20.50;99.90
21318;DHT22;10818;50.830;6.524;2022-09-09T14:09:26;20.00;99.90
21318;DHT22;10818;50.830;6.524;2022-09-09T14:14:27;19.50;99.90
21318;DHT22;10818;50.830;6.524;2022-09-09T14:19:27;19.50;99.90
21318;DHT22;10818;50.830;6.524;2022-09-09T14:24:28;20.00;99.90
21318;DHT22;10818;50.830;6.524;2022-09-09T14:29:28;20.70;99.90
21318;DHT22;10818;50.830;6.524;2022-09-09T14:34:29;21.00;99.90
21318;DHT22;10818;50.830;6.524;2022-09-09T14:39:29;21.20;99.90
21318;DHT22;10818;50.830;6.524;2022-09-09T14:44:30;21.30;99.90
21318;DHT22;10818;50.830;6.524;2022-09-09T14:49:30;21.50;99.90
21318;DHT22;10818;50.830;6.524;2022-09-09T14:54:31;21.50;99.90
21318;DHT22;10818;50.830;6.524;2022-09-09T14:59:32;21.00;99.90
21318;DHT22;10818;50.830;6.524;2022-09-09T15:04:32;20.60;99.90
21318;DHT22;10818;50.830;6.524;2022-09-09T15:09:33;20.70;99.90
21318;DHT22;10818;50.830;6.524;2022-09-09T15:14:33;20.40;99.90
21318;DHT22;10818;50.830;6.524;2022-09-09T15:19:35;20.30;99.90
21318;DHT22;10818;50.830;6.524;2022-09-09T15:24:36;20.10;99.90
21318;DHT22;10818;50.830;6.524;2022-09-09T15:29:37;20.00;99.90
21318;DHT22;10818;50.830;6.524;2022-09-09T15:34:42;19.80;99.90
21318;DHT22;10818;50.830;6.524;2022-09-09T15:39:42;19.80;99.90
21318;DHT22;10818;50.830;6.524;2022-09-09T15:44:43;19.50;99.90
21318;DHT22;10818;50.830;6.524;2022-09-09T15:49:43;19.30;99.90
21318;DHT22;10818;50.830;6.524;2022-09-09T15:54:44;19.10;99.90
21318;DHT22;10818;50.830;6.524;2022-09-09T15:59:45;19.10;99.90
21318;DHT22;10818;50.830;6.524;2022-09-09T16:04:46;19.00;99.90
21318;DHT22;10818;50.830;6.524;2022-09-09T16:09:46;19.20;99.90
21318;DHT22;10818;50.830;6.524;2022-09-09T16:14:47;19.40;99.90
21318;DHT22;10818;50.830;6.524;2022-09-09T16:19:47;19.40;99.90
21318;DHT22;10818;50.830;6.524;2022-09-09T16:24:48;19.50;99.90
21318;DHT22;10818;50.830;6.524;2022-09-09T16:29:48;19.90;99.90
21318;DHT22;10818;50.830;6.524;2022-09-09T16:34:49;20.00;99.90
21318;DHT22;10818;50.830;6.524;2022-09-09T16:39:50;19.90;99.90
21318;DHT22;10818;50.830;6.524;2022-09-09T16:44:50;19.90;99.90
21318;DHT22;10818;50.830;6.524;2022-09-09T16:49:50;19.80;99.90
21318;DHT22;10818;50.830;6.524;2022-09-09T16:54:51;19.60;99.90
21318;DHT22;10818;50.830;6.524;2022-09-09T16:59:51;19.10;99.90
21318;DHT22;10818;50.830;6.524;2022-09-09T17:04:54;19.00;99.90
21318;DHT22;10818;50.830;6.524;2022-09-09T17:09:54;19.00;99.90
21318;DHT22;10818;50.830;6.524;2022-09-09T17:14:55;18.90;99.90
21318;DHT22;10818;50.830;6.524;2022-09-09T17:19:56;18.80;99.90
21318;DHT22;10818;50.830;6.524;2022-09-09T17:24:56;18.50;99.90
21318;DHT22;10818;50.830;6.524;2022-09-09T17:29:57;18.40;99.90
21318;DHT22;10818;50.830;6.524;2022-09-09T17:34:58;18.40;99.90
21318;DHT22;10818;50.830;6.524;2022-09-09T17:39:59;18.40;99.90
21318;DHT22;10818;50.830;6.524;2022-09-09T17:44:59;18.50;99.90
21318;DHT22;10818;50.830;6.524;2022-09-09T17:50:00;18.40;99.90
21318;DHT22;10818;50.830;6.524;2022-09-09T17:55:00;18.10;99.90
21318;DHT22;10818;50.830;6.524;2022-09-09T18:00:01;18.20;99.90
21318;DHT22;10818;50.830;6.524;2022-09-09T18:05:01;18.00;99.90
21318;DHT22;10818;50.830;6.524;2022-09-09T18:10:02;17.90;99.90
21318;DHT22;10818;50.830;6.524;2022-09-09T18:15:03;18.00;99.90
21318;DHT22;10818;50.830;6.524;2022-09-09T18:20:04;17.90;99.90
21318;DHT22;10818;50.830;6.524;2022-09-09T18:25:05;17.80;99.90
21318;DHT22;10818;50.830;6.524;2022-09-09T18:30:06;17.80;99.90
21318;DHT22;10818;50.830;6.524;2022-09-09T18:35:06;17.80;99.90
21318;DHT22;10818;50.830;6.524;2022-09-09T18:40:07;17.70;99.90
21318;DHT22;10818;50.830;6.524;2022-09-09T18:45:07;17.60;99.90
21318;DHT22;10818;50.830;6.524;2022-09-09T18:50:08;17.50;99.90
21318;DHT22;10818;50.830;6.524;2022-09-09T18:55:08;17.40;99.90
21318;DHT22;10818;50.830;6.524;2022-09-09T19:00:09;17.40;99.90
21318;DHT22;10818;50.830;6.524;2022-09-09T19:05:10;17.40;99.90
21318;DHT22;10818;50.830;6.524;2022-09-09T19:10:11;17.40;99.90
21318;DHT22;10818;50.830;6.524;2022-09-09T19:15:11;17.50;99.90
21318;DHT22;10818;50.830;6.524;2022-09-09T19:20:12;17.40;99.90
21318;DHT22;10818;50.830;6.524;2022-09-09T19:25:12;17.40;99.90
21318;DHT22;10818;50.830;6.524;2022-09-09T19:30:12;17.40;99.90
21318;DHT22;10818;50.830;6.524;2022-09-09T19:35:13;17.40;99.90
21318;DHT22;10818;50.830;6.524;2022-09-09T19:40:13;17.40;99.90
21318;DHT22;10818;50.830;6.524;2022-09-09T19:45:14;17.40;99.90
21318;DHT22;10818;50.830;6.524;2022-09-09T19:50:14;17.40;99.90
21318;DHT22;10818;50.830;6.524;2022-09-09T19:55:15;17.40;99.90
21318;DHT22;10818;50.830;6.524;2022-09-09T20:00:15;17.40;99.90
21318;DHT22;10818;50.830;6.524;2022-09-09T20:05:18;17.40;99.90
21318;DHT22;10818;50.830;6.524;2022-09-09T20:10:18;17.40;99.90
21318;DHT22;10818;50.830;6.524;2022-09-09T20:15:19;17.30;99.90
21318;DHT22;10818;50.830;6.524;2022-09-09T20:20:20;17.20;99.90
21318;DHT22;10818;50.830;6.524;2022-09-09T20:25:20;17.20;99.90
21318;DHT22;10818;50.830;6.524;2022-09-09T20:30:23;17.20;99.90
21318;DHT22;10818;50.830;6.524;2022-09-09T20:35:24;17.20;99.90
21318;DHT22;10818;50.830;6.524;2022-09-09T20:40:24;17.00;99.90
21318;DHT22;10818;50.830;6.524;2022-09-09T20:45:24;17.00;99.90
21318;DHT22;10818;50.830;6.524;2022-09-09T20:50:25;17.00;99.90
21318;DHT22;10818;50.830;6.524;2022-09-09T20:55:25;17.00;99.90
21318;DHT22;10818;50.830;6.524;2022-09-09T21:00:26;17.10;99.90
21318;DHT22;10818;50.830;6.524;2022-09-09T21:05:29;17.00;99.90
21318;DHT22;10818;50.830;6.524;2022-09-09T21:10:29;17.10;99.90
21318;DHT22;10818;50.830;6.524;2022-09-09T21:15:30;17.20;99.90
21318;DHT22;10818;50.830;6.524;2022-09-09T21:20:31;17.10;99.90
21318;DHT22;10818;50.830;6.524;2022-09-09T21:25:31;17.10;99.90
21318;DHT22;10818;50.830;6.524;2022-09-09T21:30:32;17.00;99.90
21318;DHT22;10818;50.830;6.524;2022-09-09T21:35:36;16.90;99.90
21318;DHT22;10818;50.830;6.524;2022-09-09T21:40:38;16.80;99.90
21318;DHT22;10818;50.830;6.524;2022-09-09T21:45:40;16.80;99.90
21318;DHT22;10818;50.830;6.524;2022-09-09T21:50:42;16.90;99.90
21318;DHT22;10818;50.830;6.524;2022-09-09T21:55:43;16.80;99.90
21318;DHT22;10818;50.830;6.524;2022-09-09T22:00:46;16.80;99.90
21318;DHT22;10818;50.830;6.524;2022-09-09T22:05:47;16.70;99.90
21318;DHT22;10818;50.830;6.524;2022-09-09T22:10:47;16.70;99.90
21318;DHT22;10818;50.830;6.524;2022-09-09T22:15:47;16.70;99.90
21318;DHT22;10818;50.830;6.524;2022-09-09T22:20:48;16.60;99.90
21318;DHT22;10818;50.830;6.524;2022-09-09T22:25:48;16.60;99.90
21318;DHT22;10818;50.830;6.524;2022-09-09T22:30:49;16.60;99.90
21318;DHT22;10818;50.830;6.524;2022-09-09T22:35:49;16.50;99.90
21318;DHT22;10818;50.830;6.524;2022-09-09T22:40:51;16.50;99.90
21318;DHT22;10818;50.830;6.524;2022-09-09T22:45:51;16.50;99.90
21318;DHT22;10818;50.830;6.524;2022-09-09T22:50:52;16.50;99.90
21318;DHT22;10818;50.830;6.524;2022-09-09T22:55:53;16.50;99.90
21318;DHT22;10818;50.830;6.524;2022-09-09T23:00:54;16.60;99.90
21318;DHT22;10818;50.830;6.524;2022-09-09T23:05:58;16.60;99.90
21318;DHT22;10818;50.830;6.524;2022-09-09T23:10:59;16.60;99.90
21318;DHT22;10818;50.830;6.524;2022-09-09T23:16:06;16.40;99.90
21318;DHT22;10818;50.830;6.524;2022-09-09T23:21:07;16.40;99.90
21318;DHT22;10818;50.830;6.524;2022-09-09T23:26:08;16.30;99.90
21318;DHT22;10818;50.830;6.524;2022-09-09T23:31:10;16.30;99.90
21318;DHT22;10818;50.830;6.524;2022-09-09T23:36:13;16.20;99.90
21318;DHT22;10818;50.830;6.524;2022-09-09T23:41:15;16.20;99.90
21318;DHT22;10818;50.830;6.524;2022-09-09T23:46:20;16.20;99.90
21318;DHT22;10818;50.830;6.524;2022-09-09T23:51:21;16.20;99.90
21318;DHT22;10818;50.830;6.524;2022-09-09T23:56:23;16.10;99.90
